Granby Valley, Vermont
Current Conditions -  °F | °C
As of 5:52 AM on Monday 20 Oct 2014 (Local Time) from KHIE Reporting Station
Overcast Overcast  
Wind Chill: 32°   Ceiling: 3700
Heat Index: 36°   Visibility: 10mi
Dew Point: 23°   Wind: 5mph
Humidity: 59%   Direction: 230°SW
Pressure: 29.96"   Gusts: NA
Location:  44.5627°N, 71.7775°W
Report Text: KHIE 200952Z AUTO 23004KT 10SM OVC037 02/M05 A2996 RMK AO2 SLP156 T00221050
Loading
Personal Weather Stations






























Interactive Weather Map
Tropical Storm Tracking
New forecast layout! Learn more

10-Day Weather Forecast

Advertisements
Track Severe Weather on mobile